Meteo Giornale » Osservazioni meteo Italia » Palermo-Punta Raisi

ore: 17:20 - Osservazioni Meteo Palermo-Punta Raisi
Lat. 38° 11' N Lon. 13° 6' E Alt. 21 metri s.l.m.

poco_nuvoloso Europe/Rome

27 °C

Poco Nuvoloso

Temp. 24 Ore

22 °C

28 °C

Nord

13 Km/h

Dew point 20 °C

Umidità 65 %

Visibilità  10 Km

Il sole sorge alle ore 06:22

Il sole tramonta alle ore 20:01

Data e Ora Cielo e Fenomeni T °C DP °C Um. % Pres. hPa Vis. km Vento km/h
Oggi h: 17:20 poco_nuvoloso Poco Nuvoloso 27 20 65 1013 10 N 13
Oggi h: 16:50 poco_nuvoloso Poco Nuvoloso 28 20 61 1013 10 N 13
Oggi h: 16:20 poco_nuvoloso Poco Nuvoloso 28 20 61 1013 10 N 11.1
Oggi h: 15:50 poco_nuvoloso Poco Nuvoloso 28 20 61 1013 10 N 9.3
Oggi h: 15:20 poco_nuvoloso Poco Nuvoloso 28 20 61 1013 10 N 11.1
Oggi h: 14:50 poco_nuvoloso Poco Nuvoloso 28 20 61 1013 10 N 13
Oggi h: 14:20 poco_nuvoloso Poco Nuvoloso 28 20 61 1013 10 N 11.1
Oggi h: 13:50 poco_nuvoloso Poco Nuvoloso 28 18 54 1013 10 N/NO 7.4
Oggi h: 13:20 poco_nuvoloso Poco Nuvoloso 27 19 61 1013 10 NO 11.1
Oggi h: 12:50 poco_nuvoloso Poco Nuvoloso 26 21 73 1013 10 NO 24
Oggi h: 12:20 poco_nuvoloso Poco Nuvoloso 27 20 65 1013 10 O 9.3
Oggi h: 11:50 poco_nuvoloso Poco Nuvoloso 27 20 65 1013 10 NO 7.4
Oggi h: 11:20 poco_nuvoloso Poco Nuvoloso 26 20 69 1013 10 O 9.3
Oggi h: 10:50 nuvoloso Nuvoloso 26 20 69 1013 10 O 7.4
Oggi h: 10:20 poco_nuvoloso Poco Nuvoloso 26 20 69 1013 10 O/NO 9.3
Oggi h: 09:50 poco_nuvoloso Poco Nuvoloso 25 20 73 1013 10 O/NO 7.4
Oggi h: 09:20 poco_nuvoloso Poco Nuvoloso 25 20 73 1013 10 NO 7.4
Oggi h: 08:50 poco_nuvoloso Poco Nuvoloso 25 19 69 1013 10 N 3.7
Oggi h: 08:20 poco_nuvoloso Poco Nuvoloso 25 19 69 1013 10 N 3.7
Oggi h: 07:50 poco_nuvoloso Poco Nuvoloso 24 19 73 1012 10 N 3.7
Oggi h: 07:20 poco_nuvoloso Poco Nuvoloso 23 19 78 1012 10 N 5.5
Oggi h: 06:50 nuvoloso Nuvoloso 23 18 73 1012 10 S/SE 7.4
Oggi h: 06:20 nuvoloso Nuvoloso 23 18 73 1012 10 N 5.5
Oggi h: 05:50 nuvoloso Nuvoloso 23 19 78 1012 10 N 5.5
Oggi h: 05:20 sereno Sereno 22 19 83 1012 10 S/SE 13
Oggi h: 04:50 sereno Sereno 22 19 83 1012 10 S 11.1
Oggi h: 04:20 sereno Sereno 22 19 83 1012 10 S 11.1
Oggi h: 03:50 sereno Sereno 23 19 78 1012 10 S 9.3
Oggi h: 03:20 sereno Sereno 22 19 83 1012 10 S 9.3
Oggi h: 02:50 sereno Sereno 22 19 83 1012 10 S 9.3
Oggi h: 02:20 poco_nuvoloso Poco Nuvoloso 22 19 83 1012 10 S 9.3
Oggi h: 01:50 poco_nuvoloso Poco Nuvoloso 23 20 83 1012 10 S 9.3
Oggi h: 01:20 coperto_pioggia Pioviggine Leggera 23 20 83 1012 10 S 9.3
Oggi h: 00:50 coperto_pioggia Pioggia Debole 23 19 78 1012 10 S/SO 11.1
Oggi h: 00:20 coperto_pioggia Pioggia 24 20 78 1013 9 NO 11.1
Ieri h: 23:50 coperto_pioggia Pioviggine Leggera 23 18 73 1012 10 N 13
Ieri h: 23:20 nuvoloso_temporali Temporale con Pioggia 24 18 69 1012 9 N 14.8
Ieri h: 22:50 poco_nuvoloso Poco Nuvoloso 24 18 69 1012 10 E/SE 7.4
Ieri h: 22:20 poco_nuvoloso Poco Nuvoloso 25 20 73 1012 10 N/NE 18.5
Ieri h: 21:50 poco_nuvoloso Poco Nuvoloso 26 19 65 1012 10 O 7.4
Ieri h: 21:20 poco_nuvoloso Poco Nuvoloso 26 19 65 1012 10 O/NO 11.1
Ieri h: 20:50 poco_nuvoloso Poco Nuvoloso 26 20 69 1012 10 O 9.3
Ieri h: 20:20 poco_nuvoloso Poco Nuvoloso 26 19 65 1012 10 O/NO 11.1
Ieri h: 19:50 poco_nuvoloso Poco Nuvoloso 26 19 65 1012 10 O/NO 13
Ieri h: 19:20 nuvoloso Nuvoloso 27 19 61 1011 10 O 14.8
Ieri h: 18:50 nuvoloso Nuvoloso 26 20 69 1012 10 O 14.8
Ieri h: 18:20 nuvoloso Nuvoloso 26 20 69 1011 10 O/NO 18.5
Ieri h: 17:50 nuvoloso Nuvoloso 26 21 73 1011 10 NO 24